createdAt,value
2019-01-04T00:05:14.963Z,4.68
2019-01-04T00:11:09.970Z,5.68
2019-01-04T00:17:04.970Z,4
2019-01-04T00:22:59.977Z,3.02
2019-01-04T00:28:54.993Z,3.95
2019-01-04T00:34:49.996Z,3.49
2019-01-04T00:40:45.038Z,2.7
2019-01-04T00:46:39.982Z,2.42
2019-01-04T00:52:34.968Z,2.61
2019-01-04T00:58:30.007Z,3.04
2019-01-04T01:04:25.002Z,3.27
2019-01-04T01:10:19.990Z,4.71
2019-01-04T01:16:14.983Z,4.96
2019-01-04T01:22:10.000Z,5.81
2019-01-04T01:28:05.002Z,6.44
2019-01-04T01:33:59.998Z,5.47
2019-01-04T01:39:55.039Z,5.79
2019-01-04T01:45:50.023Z,4.53
2019-01-04T01:51:45.017Z,5.34
2019-01-04T01:57:40.233Z,4.97
2019-01-04T02:03:38.829Z,5.14
2019-01-04T02:09:30.033Z,5.68
2019-01-04T02:15:24.991Z,4.84
2019-01-04T02:21:19.991Z,5.51
2019-01-04T02:27:15.024Z,3.21
2019-01-04T02:33:10.060Z,3.25
2019-01-04T02:39:05.047Z,3.18
2019-01-04T02:45:00.017Z,4.49
2019-01-04T02:50:55.010Z,4.43
2019-01-04T02:56:50.012Z,3.83
2019-01-04T03:02:45.063Z,3
2019-01-04T03:08:40.045Z,4.54
2019-01-04T03:14:35.048Z,4.25
2019-01-04T03:20:30.057Z,4.9
2019-01-04T03:26:25.024Z,5.2
2019-01-04T03:32:20.056Z,4.42
2019-01-04T03:38:15.034Z,4.87
2019-01-04T03:44:10.019Z,5.2
2019-01-04T03:50:05.048Z,2.84
2019-01-04T03:56:00.098Z,3.93
2019-01-04T04:01:55.032Z,6.18
2019-01-04T04:07:50.041Z,5.55
2019-01-04T04:13:45.067Z,4.1
2019-01-04T04:19:40.047Z,4.28
2019-01-04T04:25:35.068Z,4.71
2019-01-04T04:31:30.063Z,4.22
2019-01-04T04:37:25.034Z,5.1
2019-01-04T04:43:20.047Z,4.97
2019-01-04T04:49:15.051Z,4.89
2019-01-04T04:55:10.057Z,4.78
2019-01-04T05:01:05.059Z,4.96
2019-01-04T05:07:00.092Z,4.63
2019-01-04T05:12:55.080Z,4.67
2019-01-04T05:18:50.119Z,4.85
2019-01-04T05:24:45.080Z,4.77
2019-01-04T05:30:40.070Z,5.83
2019-01-04T05:36:35.065Z,4.82
2019-01-04T05:42:30.075Z,5.93
2019-01-04T05:48:25.093Z,10.86
2019-01-04T05:54:20.114Z,6.54
2019-01-04T06:00:15.097Z,4.71
2019-01-04T06:06:10.090Z,4.66
2019-01-04T06:12:05.090Z,4.15
2019-01-04T06:18:00.112Z,4.49
2019-01-04T06:23:55.094Z,4.02
2019-01-04T06:29:50.103Z,5.6
2019-01-04T06:35:45.123Z,5.06
2019-01-04T06:41:40.100Z,5.75
2019-01-04T06:47:35.132Z,5.83
2019-01-04T06:53:30.098Z,4.78
2019-01-04T06:59:25.117Z,4.86
2019-01-04T07:05:20.100Z,5.47
2019-01-04T07:11:15.111Z,7.81
2019-01-04T07:17:10.161Z,5.24
2019-01-04T07:23:05.105Z,5.6
2019-01-04T07:29:00.128Z,7.47
2019-01-04T07:34:55.162Z,7.6
2019-01-04T07:40:50.135Z,6.88
2019-01-04T07:46:45.127Z,7.63
2019-01-04T07:52:40.210Z,6.51
2019-01-04T07:58:35.128Z,7.01
2019-01-04T08:04:30.166Z,8.63
2019-01-04T08:10:25.111Z,8.79
2019-01-04T08:16:20.154Z,8.61
2019-01-04T08:22:15.130Z,7.87
2019-01-04T08:28:10.118Z,11.75
2019-01-04T08:34:05.222Z,13.96
2019-01-04T08:40:00.184Z,12.19
2019-01-04T08:45:55.179Z,14.04
2019-01-04T08:51:50.152Z,12.07
2019-01-04T08:57:45.175Z,13.37
2019-01-04T09:03:40.184Z,13.2
2019-01-04T09:09:35.208Z,12.81
2019-01-04T09:15:30.152Z,11.31
2019-01-04T09:21:25.194Z,10.66
2019-01-04T09:27:20.148Z,13.76
2019-01-04T09:33:15.144Z,11.41
2019-01-04T09:39:10.183Z,11.12
2019-01-04T09:45:05.157Z,11.15
2019-01-04T09:51:00.168Z,12.43
2019-01-04T09:56:55.163Z,13.22
2019-01-04T10:02:50.178Z,12.79
2019-01-04T10:08:45.154Z,13.9
2019-01-04T10:14:40.171Z,14.38
2019-01-04T10:20:35.186Z,12.2
2019-01-04T10:26:30.204Z,13.68
2019-01-04T10:32:25.180Z,12.13
2019-01-04T10:38:20.187Z,12.54
2019-01-04T10:44:15.197Z,12.05
2019-01-04T10:50:10.198Z,13.03
2019-01-04T10:56:05.222Z,11.84
2019-01-04T11:02:00.224Z,10.73
2019-01-04T11:07:55.247Z,12.86
2019-01-04T11:13:50.199Z,10.07
2019-01-04T11:19:45.208Z,10.57
2019-01-04T11:25:40.224Z,8.95
2019-01-04T11:31:35.239Z,8.48
2019-01-04T11:37:30.266Z,13.39
2019-01-04T11:43:25.206Z,6.67
2019-01-04T11:49:20.229Z,6.14
2019-01-04T11:55:15.258Z,5.51
2019-01-04T12:01:10.219Z,5.51
2019-01-04T12:07:05.214Z,3.62
2019-01-04T12:13:00.271Z,4.01
2019-01-04T12:18:55.246Z,3.23
2019-01-04T12:24:50.251Z,7.22
2019-01-04T12:30:45.258Z,4.19
2019-01-04T12:36:40.251Z,4.17
2019-01-04T12:42:35.248Z,5.95
2019-01-04T12:48:30.290Z,3.42
2019-01-04T12:54:25.268Z,3.75
2019-01-04T13:00:20.264Z,2.66
2019-01-04T13:06:15.250Z,8.98
2019-01-04T13:12:10.291Z,2.91
2019-01-04T13:18:05.265Z,4.03
2019-01-04T13:24:00.268Z,4.05
2019-01-04T13:29:55.249Z,4
2019-01-04T13:35:50.267Z,7.4
2019-01-04T13:41:45.259Z,5.68
2019-01-04T13:47:40.278Z,4.18
2019-01-04T13:53:35.295Z,3.7
2019-01-04T13:59:30.275Z,4.19
2019-01-04T14:05:25.305Z,4.26
2019-01-04T14:11:20.309Z,4.68
2019-01-04T14:17:15.292Z,4.32
2019-01-04T14:23:10.274Z,5.09
2019-01-04T14:29:05.298Z,5.05
2019-01-04T14:35:00.332Z,4.59
2019-01-04T14:40:55.319Z,6.47
2019-01-04T14:46:50.295Z,7.45
2019-01-04T14:52:45.293Z,6.81
2019-01-04T14:58:40.331Z,6.46
2019-01-04T15:04:35.307Z,7.33
2019-01-04T15:10:30.319Z,8.34
2019-01-04T15:16:25.353Z,10.23
2019-01-04T15:22:20.332Z,21.5
2019-01-04T15:28:15.330Z,19.42
2019-01-04T15:34:10.361Z,16.07
2019-01-04T15:40:05.402Z,17.02
2019-01-04T15:46:00.412Z,16.1
2019-01-04T15:51:55.358Z,19.44
2019-01-04T15:57:50.337Z,14.63
2019-01-04T16:03:45.370Z,11.4
2019-01-04T16:09:40.338Z,10.26
2019-01-04T16:15:35.355Z,9.3
2019-01-04T16:21:30.346Z,12.96
2019-01-04T16:27:25.351Z,7.33
2019-01-04T16:33:20.445Z,4.8
2019-01-04T16:39:15.372Z,5.51
2019-01-04T16:45:10.367Z,7
2019-01-04T16:51:05.400Z,5.67
2019-01-04T16:57:00.700Z,8.05
2019-01-04T17:02:55.361Z,13.76
2019-01-04T17:08:50.369Z,8.52
2019-01-04T17:14:45.369Z,11.72
2019-01-04T17:20:40.391Z,6.19
2019-01-04T17:26:35.405Z,7.15
2019-01-04T17:32:30.391Z,6.68
2019-01-04T17:38:25.413Z,8.21
2019-01-04T17:44:20.409Z,12.16
2019-01-04T17:50:15.449Z,9.05
2019-01-04T17:56:10.432Z,7.82
2019-01-04T18:02:05.402Z,5.7
2019-01-04T18:08:00.424Z,8.27
2019-01-04T18:13:55.477Z,14.02
2019-01-04T18:19:50.424Z,14.44
2019-01-04T18:25:45.405Z,10.47
2019-01-04T18:31:40.443Z,7.9
2019-01-04T18:37:35.459Z,14.71
2019-01-04T18:43:30.482Z,19.67
2019-01-04T18:49:25.439Z,13.48
2019-01-04T18:55:20.448Z,10.99
2019-01-04T19:01:15.423Z,17.57
2019-01-04T19:07:10.414Z,15.98
2019-01-04T19:13:05.452Z,17.28
2019-01-04T19:19:00.459Z,16.56
2019-01-04T19:24:55.417Z,19.58
2019-01-04T19:30:50.463Z,17.68
2019-01-04T19:36:45.445Z,10.2
2019-01-04T19:42:40.444Z,9.22
2019-01-04T19:48:35.482Z,7.89
2019-01-04T19:54:30.458Z,8.97
2019-01-04T20:00:25.451Z,9.37
2019-01-04T20:06:20.485Z,12.52
2019-01-04T20:12:15.462Z,11.81
2019-01-04T20:18:11.021Z,17.37
2019-01-04T20:24:05.507Z,15.93
2019-01-04T20:30:00.457Z,12.57
2019-01-04T20:35:55.478Z,18.77
2019-01-04T20:41:50.476Z,15
2019-01-04T20:47:45.475Z,14.07
2019-01-04T20:53:40.480Z,11.83
2019-01-04T20:59:35.458Z,16.34
2019-01-04T21:05:30.524Z,14.93
2019-01-04T21:11:25.525Z,11.95
2019-01-04T21:17:20.486Z,11.54
2019-01-04T21:23:15.494Z,20.41
2019-01-04T21:29:10.485Z,11.5
2019-01-04T21:35:05.515Z,9.78
2019-01-04T21:41:00.484Z,13.07
2019-01-04T21:46:55.509Z,10.45
2019-01-04T21:52:50.467Z,8.61
2019-01-04T21:58:45.511Z,9.07
2019-01-04T22:04:40.528Z,11.49
2019-01-04T22:10:35.550Z,15.97
2019-01-04T22:16:30.494Z,11.09
2019-01-04T22:22:25.573Z,10.19
2019-01-04T22:28:20.515Z,9.87
2019-01-04T22:34:15.512Z,10.45
2019-01-04T22:40:10.542Z,10.15
2019-01-04T22:46:05.503Z,10.45
2019-01-04T22:52:00.517Z,13
2019-01-04T22:57:55.558Z,11.6
2019-01-04T23:03:50.531Z,9.71
2019-01-04T23:09:45.540Z,10.02
2019-01-04T23:15:40.542Z,14.17
2019-01-04T23:21:35.614Z,19.81
2019-01-04T23:27:30.560Z,13.3
2019-01-04T23:33:25.541Z,19.63
2019-01-04T23:39:20.566Z,16.96
2019-01-04T23:45:15.557Z,18.28
2019-01-04T23:51:10.569Z,17.51
2019-01-04T23:57:05.545Z,17.92
